Time;durP1;ratioP1;P1;durP2;ratioP2;P2;SDS_P1;SDS_P2;PMS_P1;PMS_P2;Temp;Humidity;BMP_temperature;BMP_pressure;BME280_temperature;BME280_humidity;BME280_pressure;Samples;Min_cycle;Max_cycle;Signal;HPM_P1;HPM_P2
2022/03/08 00:02:13;;;;;;;4.10;2.03;;;-4.60;99.90;;;;;;5111085;28;20283;-72
2022/03/08 00:04:39;;;;;;;1.03;1.03;;;-4.60;99.90;;;;;;5109702;28;20260;-72
2022/03/08 00:07:06;;;;;;;0.80;0.80;;;-4.70;99.90;;;;;;5108759;28;20227;-71
2022/03/08 00:09:32;;;;;;;0.80;0.80;;;-4.70;99.90;;;;;;5109545;28;20198;-72
2022/03/08 00:11:58;;;;;;;0.70;0.70;;;-4.60;99.90;;;;;;5109819;28;20214;-71
2022/03/08 00:14:24;;;;;;;0.80;0.80;;;-4.50;99.90;;;;;;5102742;28;20200;-72
2022/03/08 00:16:50;;;;;;;0.90;0.90;;;-4.40;99.90;;;;;;5107739;28;20196;-72
2022/03/08 00:19:16;;;;;;;1.87;1.57;;;-4.30;99.90;;;;;;5110931;28;20198;-72
2022/03/08 00:21:41;;;;;;;0.80;0.80;;;-4.40;99.90;;;;;;5109871;28;20230;-71
2022/03/08 00:24:08;;;;;;;0.80;0.80;;;-4.40;99.90;;;;;;5110770;28;20200;-72
2022/03/08 00:26:34;;;;;;;0.80;0.80;;;-4.40;99.90;;;;;;5108246;28;20215;-72
2022/03/08 00:28:59;;;;;;;0.80;0.80;;;-4.40;99.90;;;;;;5075322;28;20196;-72
2022/03/08 00:31:25;;;;;;;0.80;0.80;;;-4.50;99.90;;;;;;5110838;28;20294;-72
2022/03/08 00:33:51;;;;;;;0.70;0.70;;;-4.50;99.90;;;;;;5073539;28;20209;-72
2022/03/08 00:36:17;;;;;;;0.80;0.80;;;-4.60;99.90;;;;;;5091193;28;20211;-73
2022/03/08 00:38:43;;;;;;;0.80;0.80;;;-4.70;99.90;;;;;;5108325;28;20200;-72
2022/03/08 00:41:09;;;;;;;0.70;0.70;;;-4.70;99.90;;;;;;5109065;28;20244;-72
2022/03/08 00:43:34;;;;;;;1.00;1.00;;;-4.80;99.90;;;;;;5090952;28;20237;-72
2022/03/08 00:46:00;;;;;;;0.70;0.70;;;-4.80;99.90;;;;;;5073825;28;20211;-72
2022/03/08 00:48:26;;;;;;;0.70;0.70;;;-4.90;99.90;;;;;;5094522;28;20253;-73
2022/03/08 00:50:51;;;;;;;0.80;0.80;;;-4.90;99.90;;;;;;5095649;28;20212;-72
2022/03/08 00:53:17;;;;;;;0.77;0.77;;;-4.90;99.90;;;;;;5096578;28;20200;-72
2022/03/08 00:55:43;;;;;;;0.73;0.73;;;-4.90;99.90;;;;;;5079902;28;20211;-72
2022/03/08 00:58:09;;;;;;;0.80;0.80;;;-4.80;99.90;;;;;;5103592;28;20227;-71
2022/03/08 01:00:36;;;;;;;0.90;0.90;;;-4.80;99.90;;;;;;5100095;28;20231;-73
2022/03/08 01:03:02;;;;;;;0.80;0.80;;;-4.80;99.90;;;;;;5093332;28;20724;-72
2022/03/08 01:05:29;;;;;;;0.80;0.80;;;-4.90;99.90;;;;;;5089987;28;20204;-72
2022/03/08 01:07:55;;;;;;;0.90;0.90;;;-4.90;99.90;;;;;;5109192;27;20680;-73
2022/03/08 01:10:23;;;;;;;0.87;0.87;;;-4.80;99.90;;;;;;5074625;28;20301;-72
2022/03/08 01:12:50;;;;;;;0.80;0.80;;;-4.80;99.90;;;;;;5091904;28;20203;-72
2022/03/08 01:15:17;;;;;;;0.83;0.83;;;-4.90;99.90;;;;;;5092551;28;20550;-72
2022/03/08 01:17:43;;;;;;;0.80;0.80;;;-4.90;99.90;;;;;;5086473;28;20200;-72
2022/03/08 01:20:11;;;;;;;0.80;0.80;;;-4.90;99.90;;;;;;5100301;28;20211;-72
2022/03/08 01:22:37;;;;;;;0.80;0.80;;;-4.90;99.90;;;;;;5079956;28;20609;-72
2022/03/08 01:25:04;;;;;;;0.80;0.80;;;-5.00;99.90;;;;;;5108283;28;20239;-72
2022/03/08 01:27:30;;;;;;;0.80;0.80;;;-5.00;99.90;;;;;;5107718;28;20203;-72
2022/03/08 01:29:56;;;;;;;0.80;0.80;;;-5.10;99.90;;;;;;5107102;28;20209;-72
2022/03/08 01:32:22;;;;;;;0.80;0.80;;;-5.10;99.90;;;;;;5090038;28;20196;-72
2022/03/08 01:34:48;;;;;;;0.70;0.70;;;-5.20;99.90;;;;;;5096349;28;20275;-72
2022/03/08 01:37:14;;;;;;;0.90;0.90;;;-5.30;99.90;;;;;;5090195;28;20200;-72
2022/03/08 01:39:39;;;;;;;0.80;0.80;;;-5.40;99.90;;;;;;5056006;28;20201;-72
2022/03/08 01:42:16;;;;;;;0.80;0.80;;;-5.40;99.90;;;;;;5095133;28;20252;-73
2022/03/08 01:44:44;;;;;;;0.80;0.80;;;-5.50;99.90;;;;;;5072559;28;20192;-72
2022/03/08 01:47:19;;;;;;;0.67;0.67;;;-5.50;99.90;;;;;;5090946;28;20716;-72
2022/03/08 01:49:45;;;;;;;0.73;0.73;;;-5.60;99.90;;;;;;5074573;28;20627;-69
2022/03/08 01:52:12;;;;;;;0.70;0.70;;;-5.60;99.90;;;;;;5091274;28;20571;-70
2022/03/08 01:54:38;;;;;;;0.80;0.80;;;-5.60;99.90;;;;;;5091259;28;20556;-70
2022/03/08 01:57:05;;;;;;;1.00;1.00;;;-5.60;99.90;;;;;;5092060;28;20192;-70
2022/03/08 01:59:30;;;;;;;0.80;0.80;;;-5.60;99.90;;;;;;5108262;28;20286;-71
2022/03/08 02:01:56;;;;;;;0.80;0.80;;;-5.60;99.90;;;;;;5107271;28;20340;-70
2022/03/08 02:04:22;;;;;;;22.20;5.50;;;-5.70;99.90;;;;;;5089614;28;20208;-69
2022/03/08 02:06:49;;;;;;;4.07;2.13;;;-5.70;99.90;;;;;;5090044;28;20214;-69
2022/03/08 02:09:14;;;;;;;0.80;0.80;;;-5.80;99.90;;;;;;5088894;28;20298;-69
2022/03/08 02:11:41;;;;;;;0.90;0.90;;;-5.80;99.90;;;;;;5107690;28;20776;-69
2022/03/08 02:14:07;;;;;;;0.90;0.90;;;-5.80;99.90;;;;;;5103657;28;20290;-69
2022/03/08 02:16:33;;;;;;;0.80;0.80;;;-5.80;99.90;;;;;;5101095;28;20667;-70
2022/03/08 02:18:59;;;;;;;0.80;0.80;;;-5.80;99.90;;;;;;5107666;28;20204;-69
2022/03/08 02:21:25;;;;;;;0.80;0.80;;;-5.80;99.90;;;;;;5106613;28;20286;-69
2022/03/08 02:23:52;;;;;;;0.90;0.90;;;-5.90;99.90;;;;;;5108229;28;20286;-69
2022/03/08 02:26:20;;;;;;;0.90;0.90;;;-5.90;99.90;;;;;;5107605;28;20639;-70
2022/03/08 02:28:46;;;;;;;0.90;0.90;;;-5.90;99.90;;;;;;5107883;28;20203;-69
2022/03/08 02:31:12;;;;;;;0.90;0.90;;;-6.00;99.90;;;;;;5103124;28;20203;-69
2022/03/08 02:33:38;;;;;;;0.90;0.90;;;-6.00;99.90;;;;;;5074763;28;20211;-71
2022/03/08 02:36:06;;;;;;;0.90;0.90;;;-6.00;99.90;;;;;;5088484;28;20201;-70
2022/03/08 02:38:31;;;;;;;0.80;0.80;;;-6.00;99.90;;;;;;5076158;28;20203;-70
2022/03/08 02:40:57;;;;;;;0.80;0.80;;;-6.10;99.90;;;;;;5108282;28;20626;-70
2022/03/08 02:43:23;;;;;;;0.60;0.60;;;-6.10;99.90;;;;;;5109101;28;20677;-69
2022/03/08 02:45:48;;;;;;;0.90;0.90;;;-6.00;99.90;;;;;;5089915;28;20195;-69
2022/03/08 02:48:14;;;;;;;1.43;1.33;;;-5.90;99.90;;;;;;5089732;28;20208;-69
2022/03/08 02:50:40;;;;;;;0.80;0.80;;;-5.70;99.90;;;;;;5107344;28;20222;-72
2022/03/08 02:53:06;;;;;;;0.90;0.90;;;-5.60;99.90;;;;;;5106633;28;20204;-72
2022/03/08 02:55:33;;;;;;;0.70;0.70;;;-5.60;99.90;;;;;;5088251;28;20200;-72
2022/03/08 02:57:59;;;;;;;0.87;0.87;;;-5.60;99.90;;;;;;5112400;28;20202;-72
2022/03/08 03:00:27;;;;;;;0.87;0.87;;;-5.60;99.90;;;;;;5088985;28;20227;-73
2022/03/08 03:02:53;;;;;;;0.70;0.70;;;-5.60;99.90;;;;;;5104290;28;20203;-71
2022/03/08 03:05:19;;;;;;;0.80;0.80;;;-5.50;99.90;;;;;;5109835;28;20697;-69
2022/03/08 03:07:45;;;;;;;2.77;2.40;;;-5.30;99.90;;;;;;5109788;28;20608;-70
2022/03/08 03:10:14;;;;;;;0.80;0.80;;;-5.30;99.90;;;;;;5109998;28;20222;-69
2022/03/08 03:12:40;;;;;;;0.80;0.80;;;-5.20;99.90;;;;;;5109875;28;20202;-69
2022/03/08 03:15:09;;;;;;;0.70;0.70;;;-5.20;99.90;;;;;;5090889;28;20195;-69
2022/03/08 03:17:35;;;;;;;0.63;0.63;;;-5.10;99.90;;;;;;5103606;28;20568;-69
2022/03/08 03:20:01;;;;;;;0.70;0.70;;;-5.20;99.90;;;;;;5110757;28;20238;-71
2022/03/08 03:22:27;;;;;;;0.70;0.70;;;-5.30;99.90;;;;;;5109409;28;20195;-72
2022/03/08 03:24:52;;;;;;;0.80;0.80;;;-5.40;99.90;;;;;;5110573;28;20303;-72
2022/03/08 03:27:18;;;;;;;0.80;0.80;;;-5.50;99.90;;;;;;5109527;28;20197;-72
2022/03/08 03:29:44;;;;;;;0.80;0.80;;;-5.60;99.90;;;;;;5107907;28;20253;-72
2022/03/08 03:32:09;;;;;;;1.07;1.07;;;-5.80;99.90;;;;;;5111934;28;20602;-72
2022/03/08 03:34:35;;;;;;;0.90;0.90;;;-5.90;99.90;;;;;;5098480;28;20569;-72
2022/03/08 03:37:01;;;;;;;0.90;0.90;;;-6.00;99.90;;;;;;5112422;28;20207;-72
2022/03/08 03:39:27;;;;;;;0.90;0.90;;;-6.10;99.90;;;;;;5090757;28;20606;-72
2022/03/08 03:41:52;;;;;;;0.80;0.80;;;-6.10;99.90;;;;;;5092086;28;20295;-72
2022/03/08 03:44:21;;;;;;;3.33;2.80;;;-6.20;99.90;;;;;;5110329;28;20227;-72
2022/03/08 03:46:50;;;;;;;0.80;0.80;;;-6.20;99.90;;;;;;5091946;28;20242;-72
2022/03/08 03:49:15;;;;;;;1.17;1.17;;;-6.20;99.90;;;;;;5110656;28;20207;-71
2022/03/08 03:51:41;;;;;;;0.90;0.90;;;-6.20;99.90;;;;;;5109890;28;20565;-72
2022/03/08 03:54:07;;;;;;;0.80;0.80;;;-6.30;99.90;;;;;;5089972;28;20206;-71
2022/03/08 03:56:33;;;;;;;1.37;1.27;;;-6.30;99.90;;;;;;5108836;28;20199;-71
2022/03/08 03:59:00;;;;;;;0.90;0.90;;;-6.30;99.90;;;;;;5108914;28;20253;-72
2022/03/08 04:01:25;;;;;;;3.37;2.30;;;-6.30;99.90;;;;;;5082574;28;20207;-72
2022/03/08 04:03:51;;;;;;;0.80;0.80;;;-6.40;99.90;;;;;;5100216;28;20207;-71
2022/03/08 04:06:16;;;;;;;0.90;0.90;;;-6.40;99.90;;;;;;5090488;28;20635;-71
2022/03/08 04:08:42;;;;;;;0.83;0.83;;;-6.40;99.90;;;;;;5110594;28;20568;-72
2022/03/08 04:11:08;;;;;;;0.90;0.90;;;-6.50;99.90;;;;;;5107689;28;20249;-70
2022/03/08 04:13:33;;;;;;;0.97;0.97;;;-6.60;99.90;;;;;;5091525;28;20283;-71
2022/03/08 04:15:59;;;;;;;0.90;0.90;;;-6.70;99.90;;;;;;5095743;28;20258;-70
2022/03/08 04:18:25;;;;;;;2.30;1.60;;;-6.70;99.90;;;;;;5108481;28;20740;-70
2022/03/08 04:20:50;;;;;;;0.90;0.90;;;-6.70;99.90;;;;;;5093729;28;20621;-70
2022/03/08 04:23:16;;;;;;;0.90;0.90;;;-6.70;99.90;;;;;;5112511;28;20191;-70
2022/03/08 04:25:42;;;;;;;0.80;0.80;;;-6.70;99.90;;;;;;5089733;28;20228;-71
2022/03/08 04:28:07;;;;;;;0.90;0.90;;;-6.70;99.90;;;;;;5111069;28;20207;-70
2022/03/08 04:30:33;;;;;;;0.90;0.90;;;-6.70;99.90;;;;;;5095452;28;20210;-69
2022/03/08 04:32:59;;;;;;;0.90;0.90;;;-6.70;99.90;;;;;;5123208;27;20226;-70
2022/03/08 04:35:25;;;;;;;0.80;0.80;;;-6.70;99.90;;;;;;5109328;28;20296;-70
2022/03/08 04:37:51;;;;;;;0.80;0.80;;;-6.70;99.90;;;;;;5109095;28;20253;-70
2022/03/08 04:40:17;;;;;;;0.90;0.90;;;-6.80;99.90;;;;;;5109576;28;20195;-70
2022/03/08 04:42:43;;;;;;;0.80;0.80;;;-6.70;99.90;;;;;;5089794;28;20665;-70
2022/03/08 04:45:11;;;;;;;0.90;0.90;;;-6.80;99.90;;;;;;5099169;28;20212;-70
2022/03/08 04:47:38;;;;;;;1.57;1.47;;;-6.80;99.90;;;;;;5091050;28;20200;-70
2022/03/08 04:50:06;;;;;;;0.70;0.70;;;-6.70;99.90;;;;;;5106877;28;20215;-70
2022/03/08 04:52:31;;;;;;;1.20;1.20;;;-6.70;99.90;;;;;;5097369;28;20567;-70
2022/03/08 04:54:57;;;;;;;0.90;0.90;;;-6.80;99.90;;;;;;5092061;28;20195;-70
2022/03/08 04:57:23;;;;;;;0.80;0.80;;;-6.80;99.90;;;;;;5085657;28;20224;-70
2022/03/08 04:59:49;;;;;;;0.80;0.80;;;-6.80;99.90;;;;;;5093858;28;20223;-70
2022/03/08 05:02:14;;;;;;;0.80;0.80;;;-6.70;99.90;;;;;;5091851;28;20656;-70
2022/03/08 05:04:40;;;;;;;0.90;0.90;;;-6.80;99.90;;;;;;5108625;28;20746;-70
2022/03/08 05:07:06;;;;;;;0.90;0.90;;;-6.70;99.90;;;;;;5106979;28;20230;-71
2022/03/08 05:09:31;;;;;;;0.83;0.83;;;-6.60;99.90;;;;;;5110473;28;20297;-70
2022/03/08 05:11:58;;;;;;;0.87;0.87;;;-6.60;99.90;;;;;;5109454;28;20217;-70
2022/03/08 05:14:24;;;;;;;0.80;0.80;;;-6.50;99.90;;;;;;5085718;28;20192;-70
2022/03/08 05:16:51;;;;;;;0.90;0.90;;;-6.50;99.90;;;;;;5108242;28;20566;-70
2022/03/08 05:19:16;;;;;;;0.90;0.90;;;-6.60;99.90;;;;;;5090935;28;20206;-69
2022/03/08 05:21:42;;;;;;;0.87;0.87;;;-6.60;99.90;;;;;;5108519;28;20666;-71
2022/03/08 05:24:08;;;;;;;0.90;0.90;;;-6.70;99.90;;;;;;5104968;28;20314;-70
2022/03/08 05:26:33;;;;;;;0.70;0.70;;;-6.80;99.90;;;;;;5079266;28;20219;-69
2022/03/08 05:28:59;;;;;;;0.90;0.90;;;-6.80;99.90;;;;;;5101414;28;20210;-70
2022/03/08 05:31:25;;;;;;;0.90;0.90;;;-6.90;99.90;;;;;;5106791;28;20199;-70
2022/03/08 05:33:50;;;;;;;0.90;0.90;;;-6.90;99.90;;;;;;5090497;28;20195;-70
2022/03/08 05:36:16;;;;;;;0.87;0.87;;;-7.00;99.90;;;;;;5088852;28;20192;-70
2022/03/08 05:38:42;;;;;;;0.87;0.87;;;-7.00;99.90;;;;;;5108063;28;20658;-70
2022/03/08 05:41:07;;;;;;;0.80;0.80;;;-7.10;99.90;;;;;;5108389;28;20262;-70
2022/03/08 05:43:33;;;;;;;0.93;0.93;;;-7.20;99.90;;;;;;5107931;28;20677;-70
2022/03/08 05:45:59;;;;;;;0.80;0.80;;;-7.20;99.90;;;;;;5090049;28;20196;-70
2022/03/08 05:48:24;;;;;;;0.80;0.80;;;-7.30;99.90;;;;;;5088566;28;20569;-70
2022/03/08 05:50:50;;;;;;;0.77;0.77;;;-7.30;99.90;;;;;;5089940;28;20200;-70
2022/03/08 05:53:16;;;;;;;0.70;0.70;;;-7.30;99.90;;;;;;5109099;28;20196;-70
2022/03/08 05:55:42;;;;;;;0.90;0.90;;;-7.30;99.90;;;;;;5108489;28;20196;-70
2022/03/08 05:58:08;;;;;;;0.73;0.73;;;-7.20;99.90;;;;;;5109609;28;20192;-70
2022/03/08 06:00:33;;;;;;;1.00;1.00;;;-7.30;99.90;;;;;;5107559;28;20252;-71
2022/03/08 06:02:59;;;;;;;0.80;0.80;;;-7.30;99.90;;;;;;5090969;28;20248;-71
2022/03/08 06:05:25;;;;;;;0.90;0.90;;;-7.30;99.90;;;;;;5104190;28;20203;-70
2022/03/08 06:07:50;;;;;;;0.90;0.90;;;-7.30;99.90;;;;;;5106833;28;20227;-70
2022/03/08 06:10:16;;;;;;;0.90;0.90;;;-7.20;99.90;;;;;;5089446;28;20203;-71
2022/03/08 06:12:42;;;;;;;0.90;0.90;;;-7.20;99.90;;;;;;5079733;28;20229;-70
2022/03/08 06:15:08;;;;;;;0.90;0.90;;;-7.10;99.90;;;;;;5102121;28;20199;-70
2022/03/08 06:17:34;;;;;;;0.90;0.90;;;-7.00;99.90;;;;;;5089457;28;20200;-72
2022/03/08 06:20:00;;;;;;;0.90;0.90;;;-7.00;99.90;;;;;;5108024;28;20219;-70
2022/03/08 06:22:26;;;;;;;3.37;2.13;;;-6.90;99.90;;;;;;5100227;28;20288;-70
2022/03/08 06:24:52;;;;;;;0.87;0.87;;;-6.80;99.90;;;;;;5096934;28;20310;-70
2022/03/08 06:27:18;;;;;;;3.13;2.23;;;-6.80;99.90;;;;;;5107896;28;20195;-70
2022/03/08 06:29:44;;;;;;;1.10;1.10;;;-6.70;99.90;;;;;;5106907;28;20271;-70
2022/03/08 06:32:09;;;;;;;1.00;1.00;;;-6.70;99.90;;;;;;5127490;27;20260;-71
2022/03/08 06:34:35;;;;;;;3.07;1.47;;;-6.60;99.90;;;;;;5090900;28;20655;-70
2022/03/08 06:37:01;;;;;;;3.27;2.80;;;-6.50;99.90;;;;;;5097396;28;20227;-70
2022/03/08 06:39:26;;;;;;;0.90;0.90;;;-6.40;99.90;;;;;;5112780;28;20196;-71
2022/03/08 06:41:52;;;;;;;0.97;0.97;;;-6.20;99.90;;;;;;5092006;28;20200;-70
2022/03/08 06:44:18;;;;;;;0.87;0.87;;;-6.10;99.90;;;;;;5077166;28;20271;-71
2022/03/08 06:46:46;;;;;;;0.90;0.90;;;-6.00;99.90;;;;;;5112174;28;20658;-70
2022/03/08 06:49:12;;;;;;;0.90;0.90;;;-5.90;99.90;;;;;;5093699;28;20207;-71
2022/03/08 06:51:38;;;;;;;1.17;1.17;;;-5.80;99.90;;;;;;5092810;28;20227;-72
2022/03/08 06:54:05;;;;;;;0.90;0.90;;;-5.70;99.90;;;;;;5112756;28;20267;-70
2022/03/08 06:56:33;;;;;;;0.90;0.90;;;-5.70;99.90;;;;;;5112438;28;20563;-71
2022/03/08 06:58:59;;;;;;;1.37;1.27;;;-5.60;99.90;;;;;;5110145;28;20559;-71
2022/03/08 07:01:24;;;;;;;0.80;0.80;;;-5.50;99.90;;;;;;5109512;28;20203;-71
2022/03/08 07:03:50;;;;;;;1.35;1.25;;;-5.50;99.90;;;;;;5091796;28;20207;-71
2022/03/08 07:06:16;;;;;;;0.80;0.80;;;-5.40;99.90;;;;;;5110860;28;20282;-71
2022/03/08 07:08:42;;;;;;;1.83;1.73;;;-5.30;99.90;;;;;;5109745;28;20206;-71
2022/03/08 07:11:09;;;;;;;0.80;0.80;;;-5.20;99.90;;;;;;5109941;28;20207;-71
2022/03/08 07:13:34;;;;;;;0.97;0.97;;;-5.10;99.90;;;;;;5091367;28;20206;-71
2022/03/08 07:16:01;;;;;;;1.73;1.63;;;-5.00;99.90;;;;;;5099575;28;20203;-71
2022/03/08 07:18:26;;;;;;;0.87;0.87;;;-4.90;99.90;;;;;;5106048;28;20248;-71
2022/03/08 07:20:52;;;;;;;1.10;1.10;;;-4.70;99.90;;;;;;5071813;28;20204;-71
2022/03/08 07:23:18;;;;;;;0.80;0.80;;;-4.60;99.90;;;;;;5067669;28;20286;-71
2022/03/08 07:25:44;;;;;;;0.90;0.90;;;-4.50;99.90;;;;;;5103459;28;20220;-71
2022/03/08 07:28:10;;;;;;;0.90;0.90;;;-4.40;99.90;;;;;;5083461;28;20573;-71
2022/03/08 07:30:36;;;;;;;0.90;0.90;;;-4.30;99.90;;;;;;5107575;28;20227;-71
2022/03/08 07:33:02;;;;;;;1.00;1.00;;;-4.20;99.90;;;;;;5091852;28;20205;-71
2022/03/08 07:35:27;;;;;;;3.80;2.00;;;-4.10;99.90;;;;;;5105473;28;20196;-71
2022/03/08 07:37:53;;;;;;;1.17;1.17;;;-4.00;99.90;;;;;;5094496;28;20184;-71
2022/03/08 07:40:19;;;;;;;0.70;0.70;;;-3.80;99.90;;;;;;5110301;28;20200;-71
2022/03/08 07:42:45;;;;;;;0.98;0.98;;;-3.70;99.90;;;;;;5076181;28;20199;-71
2022/03/08 07:45:10;;;;;;;1.17;1.15;;;-3.50;99.90;;;;;;5111832;28;20286;-71
2022/03/08 07:47:36;;;;;;;0.93;0.93;;;-3.40;99.90;;;;;;5093217;28;20200;-71
2022/03/08 07:50:03;;;;;;;2.22;1.67;;;-3.20;99.90;;;;;;5104118;28;20210;-71
2022/03/08 07:52:29;;;;;;;2.05;1.70;;;-3.10;99.90;;;;;;5094084;28;20196;-71
2022/03/08 07:54:54;;;;;;;0.80;0.80;;;-2.90;99.90;;;;;;5110899;28;20708;-71
2022/03/08 07:57:20;;;;;;;1.45;1.35;;;-2.80;99.90;;;;;;5075823;28;20631;-71
2022/03/08 07:59:46;;;;;;;0.80;0.80;;;-2.60;99.90;;;;;;5109620;28;20203;-71
2022/03/08 08:02:12;;;;;;;1.80;1.48;;;-2.50;99.90;;;;;;5061574;28;20200;-71
2022/03/08 08:04:37;;;;;;;0.70;0.70;;;-2.40;99.90;;;;;;5098873;28;20222;-71
2022/03/08 08:07:03;;;;;;;1.42;1.33;;;-2.40;99.90;;;;;;5097065;28;20264;-71
2022/03/08 08:09:29;;;;;;;0.70;0.70;;;-2.40;99.90;;;;;;5106001;28;20659;-71
2022/03/08 08:11:55;;;;;;;1.77;1.67;;;-2.20;99.90;;;;;;5096709;28;20215;-72
2022/03/08 08:14:21;;;;;;;0.70;0.70;;;-2.10;99.90;;;;;;5100513;28;20196;-72
2022/03/08 08:16:46;;;;;;;0.70;0.70;;;-2.10;99.90;;;;;;5093204;28;20200;-71
2022/03/08 08:19:12;;;;;;;0.77;0.77;;;-2.00;99.90;;;;;;5085819;28;20231;-71
2022/03/08 08:21:38;;;;;;;0.77;0.77;;;-1.80;99.90;;;;;;5114541;27;20690;-71
2022/03/08 08:24:04;;;;;;;1.58;1.40;;;-1.60;99.90;;;;;;5106242;28;20211;-71
2022/03/08 08:26:30;;;;;;;1.38;1.27;;;-1.40;99.90;;;;;;5099888;28;20690;-71
2022/03/08 08:28:56;;;;;;;0.80;0.80;;;-1.20;99.90;;;;;;5108551;28;20203;-70
2022/03/08 08:31:23;;;;;;;0.70;0.70;;;-0.90;99.90;;;;;;5109144;28;20217;-71
2022/03/08 08:33:50;;;;;;;0.80;0.80;;;-0.90;99.90;;;;;;5091185;28;20286;-71
2022/03/08 08:36:16;;;;;;;0.73;0.73;;;-0.70;99.90;;;;;;5110635;28;20221;-71
2022/03/08 08:38:42;;;;;;;0.60;0.60;;;-0.60;99.90;;;;;;5083942;28;20197;-71
2022/03/08 08:41:07;;;;;;;0.80;0.80;;;-0.70;99.90;;;;;;5081825;28;20227;-71
2022/03/08 08:43:33;;;;;;;0.70;0.70;;;-0.60;99.90;;;;;;5108060;28;20235;-71
2022/03/08 08:45:59;;;;;;;0.60;0.60;;;-0.30;99.90;;;;;;5109362;28;20203;-71
2022/03/08 08:48:24;;;;;;;0.70;0.70;;;-0.20;99.90;;;;;;5072912;28;20208;-71
2022/03/08 08:50:50;;;;;;;0.93;0.93;;;0.10;99.90;;;;;;5111172;28;20290;-71
2022/03/08 08:53:16;;;;;;;0.80;0.80;;;0.20;99.90;;;;;;5110150;28;20215;-72
2022/03/08 08:55:42;;;;;;;0.80;0.80;;;0.40;99.90;;;;;;5090226;28;20212;-71
2022/03/08 08:58:08;;;;;;;1.27;1.25;;;0.40;99.90;;;;;;5110179;28;20286;-72
2022/03/08 09:00:34;;;;;;;0.70;0.70;;;0.60;99.90;;;;;;5107400;28;20203;-71
2022/03/08 09:03:01;;;;;;;0.80;0.80;;;0.80;99.90;;;;;;5089606;28;20208;-71
2022/03/08 09:05:27;;;;;;;1.15;1.15;;;0.90;99.90;;;;;;5089358;28;20218;-71
2022/03/08 09:07:53;;;;;;;0.70;0.70;;;1.00;99.90;;;;;;5107630;28;20692;-71
2022/03/08 09:10:22;;;;;;;0.80;0.80;;;1.00;99.90;;;;;;5090129;28;20207;-72
2022/03/08 09:12:51;;;;;;;0.90;0.90;;;1.00;99.90;;;;;;5095468;28;20199;-71
2022/03/08 09:15:20;;;;;;;3.00;1.17;;;1.10;99.90;;;;;;5108425;28;20203;-71
2022/03/08 09:17:46;;;;;;;0.63;0.63;;;1.30;99.90;;;;;;5108346;28;20533;-71
2022/03/08 09:20:13;;;;;;;0.77;0.77;;;1.70;99.90;;;;;;5090619;28;20674;-71
2022/03/08 09:22:40;;;;;;;0.90;0.90;;;2.00;99.90;;;;;;5099469;28;20559;-71
2022/03/08 09:25:07;;;;;;;0.80;0.80;;;2.40;99.90;;;;;;5088809;28;20306;-71
2022/03/08 09:27:34;;;;;;;0.60;0.60;;;2.70;99.90;;;;;;5088001;28;20710;-71
2022/03/08 09:30:04;;;;;;;1.80;1.15;;;3.20;99.90;;;;;;5108464;28;20187;-71
2022/03/08 09:32:29;;;;;;;0.90;0.90;;;3.50;99.90;;;;;;5108513;28;20575;-71
2022/03/08 09:35:02;;;;;;;0.77;0.77;;;3.70;99.90;;;;;;5091571;28;20200;-72
2022/03/08 09:37:28;;;;;;;0.80;0.80;;;3.80;99.90;;;;;;5110263;28;20215;-73
2022/03/08 09:39:54;;;;;;;0.80;0.80;;;3.70;99.90;;;;;;5074674;28;20205;-70
2022/03/08 09:42:39;;;;;;;0.85;0.85;;;4.10;99.90;;;;;;5110915;28;20196;-73
2022/03/08 09:45:05;;;;;;;0.60;0.60;;;4.20;99.90;;;;;;5076609;28;20254;-71
2022/03/08 09:48:24;;;;;;;0.80;0.80;;;4.30;99.90;;;;;;5076528;28;20676;-72
2022/03/08 09:51:03;;;;;;;0.80;0.80;;;4.10;99.90;;;;;;5093270;28;20226;-76
2022/03/08 09:53:57;;;;;;;0.70;0.70;;;4.10;99.90;;;;;;5092753;28;20196;-77
2022/03/08 09:56:49;;;;;;;0.80;0.80;;;4.40;99.90;;;;;;5093473;28;20677;-76
2022/03/08 09:59:41;;;;;;;1.00;1.00;;;4.90;99.90;;;;;;5087199;28;20614;-76
2022/03/08 10:06:32;;;;;;;0.70;0.70;;;5.60;99.90;;;;;;5036773;28;20208;-76
2022/03/08 10:09:57;;;;;;;0.80;0.80;;;5.70;99.90;;;;;;5050739;28;20253;-76
2022/03/08 10:12:24;;;;;;;0.88;0.88;;;6.00;99.90;;;;;;4977159;28;20261;-74
2022/03/08 10:14:50;;;;;;;0.70;0.70;;;6.20;99.90;;;;;;5053449;28;20205;-77
2022/03/08 10:17:38;;;;;;;1.35;0.90;;;6.30;99.90;;;;;;5055818;28;20693;-77
2022/03/08 10:20:10;;;;;;;0.70;0.70;;;6.70;99.90;;;;;;5037691;28;20202;-76
2022/03/08 10:22:38;;;;;;;0.85;0.85;;;7.00;99.90;;;;;;5054822;28;20209;-77
2022/03/08 10:25:19;;;;;;;0.70;0.70;;;7.30;99.90;;;;;;5054986;28;20753;-81
2022/03/08 10:27:53;;;;;;;0.70;0.70;;;7.20;99.90;;;;;;5054620;28;20208;-77
2022/03/08 10:30:20;;;;;;;0.85;0.85;;;6.90;99.90;;;;;;5054349;28;20246;-75
2022/03/08 10:32:47;;;;;;;0.60;0.60;;;7.10;99.90;;;;;;5054485;28;20244;-77
2022/03/08 10:35:25;;;;;;;0.70;0.70;;;6.90;99.90;;;;;;5053776;28;20213;-76
2022/03/08 10:37:51;;;;;;;1.60;1.30;;;7.00;99.90;;;;;;5053288;28;20299;-76
2022/03/08 10:40:32;;;;;;;0.65;0.65;;;7.20;99.90;;;;;;5053696;28;20214;-76
2022/03/08 10:43:09;;;;;;;0.70;0.70;;;7.20;99.90;;;;;;5114550;28;20583;-77
2022/03/08 10:45:39;;;;;;;5.68;1.65;;;7.00;99.90;;;;;;5114126;28;20600;-76
2022/03/08 10:48:07;;;;;;;0.80;0.80;;;6.90;99.90;;;;;;5113714;28;20203;-77
2022/03/08 10:50:35;;;;;;;0.85;0.85;;;6.70;99.90;;;;;;5114007;28;20207;-77
2022/03/08 10:53:03;;;;;;;0.70;0.70;;;6.70;99.90;;;;;;5110936;28;20199;-77
2022/03/08 10:55:30;;;;;;;0.73;0.73;;;6.80;99.90;;;;;;5111956;28;20202;-76
2022/03/08 10:57:58;;;;;;;0.63;0.63;;;6.80;99.90;;;;;;5113436;28;20576;-78
2022/03/08 11:00:38;;;;;;;0.90;0.90;;;6.70;99.90;;;;;;5112902;28;20723;-77
2022/03/08 11:03:10;;;;;;;0.80;0.80;;;6.90;99.90;;;;;;5110096;28;20199;-78
2022/03/08 11:05:41;;;;;;;0.70;0.70;;;7.20;99.90;;;;;;5110218;28;20187;-77
2022/03/08 11:08:08;;;;;;;0.60;0.60;;;7.00;99.90;;;;;;5112183;28;20204;-76
2022/03/08 11:10:34;;;;;;;0.80;0.80;;;7.10;99.90;;;;;;5112920;28;20286;-77
2022/03/08 11:13:00;;;;;;;0.70;0.70;;;7.10;99.90;;;;;;5113987;28;20229;-77
2022/03/08 11:15:28;;;;;;;0.70;0.70;;;7.20;99.90;;;;;;5111573;28;20203;-76
2022/03/08 11:17:56;;;;;;;0.70;0.70;;;7.40;99.90;;;;;;5093872;28;20663;-77
2022/03/08 11:20:24;;;;;;;0.80;0.80;;;7.40;99.90;;;;;;5093428;28;20234;-77
2022/03/08 11:22:53;;;;;;;2.28;1.77;;;7.50;99.90;;;;;;5113045;28;20576;-77
2022/03/08 11:25:19;;;;;;;0.77;0.77;;;7.50;99.90;;;;;;5112969;28;20302;-77
2022/03/08 11:27:47;;;;;;;0.80;0.80;;;7.80;99.90;;;;;;5111326;28;20654;-77
2022/03/08 11:30:19;;;;;;;0.75;0.75;;;8.00;99.90;;;;;;5092517;28;20678;-76
2022/03/08 11:32:57;;;;;;;0.60;0.60;;;8.00;99.90;;;;;;5111843;28;20625;-77
2022/03/08 11:35:26;;;;;;;1.63;1.38;;;8.30;99.90;;;;;;5091896;28;20670;-77
2022/03/08 11:37:52;;;;;;;0.90;0.88;;;8.60;99.90;;;;;;5111608;28;20210;-76
2022/03/08 11:40:20;;;;;;;1.20;1.10;;;8.50;99.90;;;;;;5092617;28;20199;-76
2022/03/08 11:42:50;;;;;;;0.65;0.65;;;8.40;99.90;;;;;;5110813;28;20198;-76
2022/03/08 11:45:22;;;;;;;0.63;0.63;;;8.40;99.90;;;;;;5091784;28;20195;-78
2022/03/08 11:48:03;;;;;;;0.60;0.60;;;8.40;99.90;;;;;;5109409;28;20192;-78
2022/03/08 11:50:31;;;;;;;1.10;1.00;;;8.20;99.90;;;;;;5090199;28;20260;-78
2022/03/08 11:53:10;;;;;;;0.82;0.82;;;8.10;99.90;;;;;;5092966;28;20242;-77
2022/03/08 11:55:46;;;;;;;0.75;0.75;;;8.10;99.90;;;;;;5109192;28;20203;-76
2022/03/08 11:58:19;;;;;;;0.70;0.70;;;8.00;99.90;;;;;;5092165;28;20199;-77
2022/03/08 12:00:50;;;;;;;0.63;0.63;;;8.40;99.90;;;;;;5100351;28;20221;-76
2022/03/08 12:03:22;;;;;;;1.27;1.15;;;8.70;99.90;;;;;;5089541;28;20216;-76
2022/03/08 12:05:57;;;;;;;0.60;0.60;;;9.00;99.90;;;;;;5091020;28;20733;-77
2022/03/08 12:08:28;;;;;;;0.70;0.70;;;9.30;99.90;;;;;;5109866;28;20669;-77
2022/03/08 12:11:04;;;;;;;0.60;0.60;;;9.70;99.90;;;;;;5110083;28;20251;-77
2022/03/08 12:13:35;;;;;;;1.02;0.88;;;10.00;99.90;;;;;;5090387;28;20252;-76
2022/03/08 12:16:08;;;;;;;0.75;0.75;;;10.20;99.90;;;;;;5096462;28;20682;-76
2022/03/08 12:18:34;;;;;;;0.60;0.60;;;10.60;99.90;;;;;;5107555;28;20238;-77
2022/03/08 12:21:19;;;;;;;0.60;0.60;;;10.60;99.90;;;;;;5095599;28;20208;-76
2022/03/08 12:23:55;;;;;;;0.70;0.70;;;10.40;99.90;;;;;;5108660;28;20232;-74
2022/03/08 12:26:48;;;;;;;0.70;0.70;;;10.80;99.90;;;;;;5109887;28;20211;-76
2022/03/08 12:32:44;;;;;;;0.60;0.60;;;10.50;98.30;;;;;;5078927;28;20223;-76
2022/03/08 12:35:19;;;;;;;0.70;0.70;;;10.10;99.90;;;;;;5108862;28;20223;-76
2022/03/08 12:37:55;;;;;;;0.70;0.70;;;10.10;99.90;;;;;;5111154;28;20195;-76
2022/03/08 12:40:24;;;;;;;1.02;0.98;;;10.20;99.90;;;;;;5108525;28;20210;-77
2022/03/08 12:42:53;;;;;;;1.33;1.00;;;10.10;99.90;;;;;;5092940;28;20256;-77
2022/03/08 12:45:28;;;;;;;0.60;0.60;;;10.00;98.80;;;;;;5087813;28;20252;-77
2022/03/08 12:48:12;;;;;;;0.68;0.68;;;10.30;99.90;;;;;;5089792;28;20206;-77
2022/03/08 12:50:41;;;;;;;0.50;0.50;;;10.80;99.00;;;;;;5089159;28;20199;-76
2022/03/08 12:53:10;;;;;;;0.60;0.60;;;11.00;97.90;;;;;;5109227;28;20290;-74
2022/03/08 12:55:40;;;;;;;0.50;0.50;;;10.80;97.50;;;;;;5104844;28;20667;-75
2022/03/08 12:58:18;;;;;;;0.57;0.57;;;11.10;97.90;;;;;;5100321;28;20211;-75
2022/03/08 13:00:54;;;;;;;0.85;0.85;;;11.20;97.30;;;;;;5106875;28;20238;-75
2022/03/08 13:03:23;;;;;;;0.90;0.90;;;11.60;96.80;;;;;;5089715;28;20256;-74